Time;durP1;ratioP1;P1;durP2;ratioP2;P2;SDS_P1;SDS_P2;PMS_P1;PMS_P2;Temp;Humidity;BMP_temperature;BMP_pressure;BME280_temperature;BME280_humidity;BME280_pressure;Samples;Min_cycle;Max_cycle;Signal;HPM_P1;HPM_P2
2022/08/12 00:44:50;;;;;;;0.40;0.40;;;15.30;1.00;;;;;;5037389;28;20184;-80
2022/08/12 00:47:18;;;;;;;0.40;0.40;;;15.50;1.00;;;;;;5038592;28;20190;-80
2022/08/12 00:49:45;;;;;;;0.33;0.33;;;15.70;1.00;;;;;;5038213;28;20194;-79
2022/08/12 00:52:12;;;;;;;0.50;0.50;;;15.90;99.90;;;;;;5037349;28;20216;-80
2022/08/12 00:54:49;;;;;;;0.30;0.30;;;16.10;1.00;;;;;;5039453;28;20246;-80
2022/08/12 00:57:46;;;;;;;0.50;0.50;;;15.90;1.00;;;;;;5039877;28;20619;-79
2022/08/12 01:00:23;;;;;;;0.47;0.47;;;15.70;99.90;;;;;;5038579;28;20214;-81
2022/08/12 01:02:51;;;;;;;0.40;0.40;;;15.70;99.90;;;;;;5037436;28;20194;-78
2022/08/12 01:13:38;;;;;;;0.37;0.37;;;15.70;1.00;;;;;;5035607;28;20202;-80
2022/08/12 01:16:06;;;;;;;0.40;0.40;;;15.80;1.00;;;;;;5037961;28;20251;-80
2022/08/12 01:18:34;;;;;;;0.40;0.40;;;15.70;40.80;;;;;;5037686;28;20171;-79
2022/08/12 01:21:03;;;;;;;0.30;0.30;;;15.70;99.90;;;;;;5034638;28;20184;-79
2022/08/12 01:24:03;;;;;;;0.40;0.40;;;15.70;99.90;;;;;;5032699;28;20204;-79
2022/08/12 01:26:31;;;;;;;0.40;0.40;;;15.70;1.00;;;;;;5034570;28;20172;-79
2022/08/12 01:28:58;;;;;;;0.40;0.40;;;15.70;99.90;;;;;;5016320;28;20172;-78
2022/08/12 01:31:25;;;;;;;0.40;0.40;;;15.50;1.00;;;;;;5034886;28;20211;-78
2022/08/12 01:34:02;;;;;;;0.40;0.40;;;15.40;99.90;;;;;;5032220;28;20290;-80
2022/08/12 01:36:35;;;;;;;0.37;0.37;;;15.40;99.90;;;;;;5034601;28;20207;-79
2022/08/12 01:39:02;;;;;;;0.40;0.40;;;15.40;1.00;;;;;;5016086;28;20176;-77
2022/08/12 01:41:30;;;;;;;0.40;0.40;;;15.20;99.90;;;;;;5035224;28;20672;-78
2022/08/12 01:43:59;;;;;;;0.40;0.40;;;15.20;7.10;;;;;;5032240;28;20202;-77
2022/08/12 01:47:02;;;;;;;0.40;0.40;;;15.10;1.00;;;;;;5033538;28;20187;-77
2022/08/12 01:49:49;;;;;;;0.40;0.40;;;15.20;1.00;;;;;;5032929;28;20207;-79
2022/08/12 01:52:43;;;;;;;0.60;0.60;;;15.10;1.00;;;;;;5013569;28;20953;-80
2022/08/12 01:55:12;;;;;;;0.47;0.47;;;15.00;99.90;;;;;;5030029;28;20699;-80
2022/08/12 01:57:46;;;;;;;0.37;0.37;;;14.70;1.00;;;;;;5034480;28;20191;-78
2022/08/12 02:00:16;;;;;;;0.40;0.40;;;14.50;1.00;;;;;;5034751;28;20175;-80
2022/08/12 02:02:55;;;;;;;0.40;0.40;;;14.60;99.90;;;;;;5032042;28;20568;-80
2022/08/12 02:11:34;;;;;;;0.50;0.50;;;14.70;1.00;;;;;;5035762;28;20723;-78
2022/08/12 02:14:22;;;;;;;0.40;0.40;;;14.60;1.00;;;;;;5034056;28;20230;-78
2022/08/12 02:16:48;;;;;;;0.40;0.40;;;14.50;99.90;;;;;;5035863;28;20174;-79
2022/08/12 02:19:41;;;;;;;0.33;0.33;;;14.50;99.90;;;;;;5034578;28;20171;-79
2022/08/12 02:22:13;;;;;;;0.30;0.30;;;14.60;99.90;;;;;;5034543;28;20195;-78
2022/08/12 02:24:41;;;;;;;0.50;0.50;;;14.70;99.90;;;;;;5035452;28;20180;-79
2022/08/12 02:27:09;;;;;;;0.40;0.40;;;14.40;1.00;;;;;;5035243;28;20202;-79
2022/08/12 02:29:35;;;;;;;0.30;0.30;;;14.30;1.00;;;;;;5034452;28;20176;-78
2022/08/12 02:32:02;;;;;;;0.50;0.50;;;14.30;99.90;;;;;;5034623;28;20261;-79
2022/08/12 02:34:29;;;;;;;0.50;0.50;;;14.40;99.90;;;;;;5031939;28;20182;-77
2022/08/12 02:36:56;;;;;;;0.40;0.40;;;14.40;1.00;;;;;;5033928;28;20186;-77
2022/08/12 02:39:25;;;;;;;0.43;0.43;;;14.40;99.90;;;;;;5032768;28;20246;-77
2022/08/12 02:41:53;;;;;;;0.30;0.30;;;14.50;1.00;;;;;;5032862;28;20198;-78
2022/08/12 02:44:22;;;;;;;0.30;0.30;;;14.50;99.90;;;;;;5030240;28;20196;-78
2022/08/12 02:46:53;;;;;;;0.30;0.30;;;14.50;99.90;;;;;;5032985;28;20653;-77
2022/08/12 02:49:30;;;;;;;0.40;0.40;;;14.50;1.00;;;;;;5032644;28;20295;-78
2022/08/12 02:51:56;;;;;;;0.40;0.40;;;14.50;1.00;;;;;;5033703;28;20250;-79
2022/08/12 02:54:23;;;;;;;0.50;0.50;;;14.50;1.00;;;;;;5031466;28;20246;-80
2022/08/12 02:56:48;;;;;;;0.40;0.40;;;14.40;1.00;;;;;;5033452;28;20172;-77
2022/08/12 02:59:15;;;;;;;0.40;0.40;;;14.30;99.90;;;;;;5031894;28;20594;-80
2022/08/12 03:01:53;;;;;;;0.40;0.40;;;14.30;1.00;;;;;;5034038;28;20175;-78
2022/08/12 03:04:46;;;;;;;0.50;0.50;;;14.30;1.00;;;;;;5030284;28;20202;-78
2022/08/12 03:07:25;;;;;;;0.40;0.40;;;14.30;1.00;;;;;;5030072;28;20184;-77
2022/08/12 03:10:02;;;;;;;0.30;0.30;;;14.30;99.90;;;;;;5066655;22;20247;-80
2022/08/12 03:12:31;;;;;;;0.53;0.53;;;14.30;1.00;;;;;;5052082;28;20214;-78
2022/08/12 03:15:01;;;;;;;0.40;0.40;;;14.20;99.90;;;;;;5053111;28;20175;-79
2022/08/12 03:17:37;;;;;;;0.30;0.30;;;14.10;1.00;;;;;;5053519;28;20446;-78
2022/08/12 03:20:05;;;;;;;0.40;0.40;;;14.10;42.90;;;;;;5053310;28;20205;-79
2022/08/12 03:22:33;;;;;;;0.40;0.40;;;14.00;1.00;;;;;;5052160;28;20210;-77
2022/08/12 03:25:02;;;;;;;0.40;0.40;;;14.00;1.00;;;;;;5051210;28;20237;-76
2022/08/12 03:27:30;;;;;;;0.40;0.40;;;14.10;99.90;;;;;;5051057;28;20563;-78
2022/08/12 03:29:57;;;;;;;0.40;0.40;;;13.90;1.00;;;;;;5051209;28;20187;-77
2022/08/12 03:32:24;;;;;;;0.40;0.40;;;14.00;1.00;;;;;;5052445;28;22373;-77
2022/08/12 03:34:50;;;;;;;0.40;0.40;;;13.90;1.00;;;;;;5054444;28;20186;-77
2022/08/12 03:37:19;;;;;;;0.50;0.50;;;13.90;1.00;;;;;;5054277;28;20179;-77
2022/08/12 03:39:45;;;;;;;0.40;0.40;;;13.80;1.00;;;;;;5053826;28;20175;-77
2022/08/12 03:42:11;;;;;;;0.60;0.60;;;13.80;1.00;;;;;;5053376;28;20175;-77
2022/08/12 04:01:40;;;;;;;0.40;0.40;;;13.60;1.00;;;;;;5054183;28;20189;-77
2022/08/12 04:04:09;;;;;;;0.40;0.40;;;13.50;99.90;;;;;;5053815;28;20217;-77
2022/08/12 04:06:43;;;;;;;0.50;0.50;;;13.30;99.90;;;;;;5053910;28;20198;-77
2022/08/12 04:09:09;;;;;;;0.43;0.43;;;13.30;99.90;;;;;;5053014;28;20260;-76
2022/08/12 04:14:22;;;;;;;0.50;0.50;;;13.40;1.00;;;;;;5054511;28;20206;-76
2022/08/12 04:16:49;;;;;;;0.40;0.40;;;13.20;1.00;;;;;;5054270;28;20167;-77
2022/08/12 04:19:17;;;;;;;0.50;0.50;;;13.10;1.00;;;;;;5053241;28;20278;-76
2022/08/12 04:21:43;;;;;;;0.50;0.50;;;13.10;99.90;;;;;;5053269;28;20229;-76
2022/08/12 04:24:09;;;;;;;0.50;0.50;;;13.20;1.00;;;;;;5053625;28;20199;-77
2022/08/12 04:26:34;;;;;;;0.40;0.40;;;13.10;99.90;;;;;;5053299;28;20175;-77
2022/08/12 04:29:01;;;;;;;0.60;0.60;;;13.20;1.00;;;;;;5053046;28;20221;-76
2022/08/12 04:31:34;;;;;;;0.50;0.50;;;13.20;1.00;;;;;;5053362;28;20210;-78
2022/08/12 04:34:00;;;;;;;0.60;0.60;;;13.20;99.90;;;;;;5058413;28;20202;-78
2022/08/12 04:36:26;;;;;;;0.40;0.40;;;13.30;1.00;;;;;;5057879;28;20648;-78
2022/08/12 04:38:53;;;;;;;0.50;0.50;;;13.30;99.90;;;;;;5059480;28;20183;-78
2022/08/12 04:41:19;;;;;;;0.40;0.40;;;13.30;1.00;;;;;;5055543;28;20175;-78
2022/08/12 04:43:45;;;;;;;0.50;0.50;;;13.30;99.90;;;;;;5056283;28;20195;-78
2022/08/12 04:46:11;;;;;;;0.40;0.40;;;13.40;1.00;;;;;;5055965;28;20210;-77
2022/08/12 04:48:36;;;;;;;0.40;0.40;;;13.50;1.00;;;;;;5056660;28;20186;-78
2022/08/12 04:51:03;;;;;;;0.50;0.50;;;13.40;65.70;;;;;;5058273;28;20210;-78
2022/08/12 04:53:30;;;;;;;0.60;0.60;;;13.40;99.90;;;;;;5055983;28;20199;-78
2022/08/12 04:55:56;;;;;;;0.70;0.70;;;13.20;1.00;;;;;;5059009;28;20183;-78
2022/08/12 04:58:22;;;;;;;0.50;0.50;;;13.30;1.00;;;;;;5057195;28;20175;-78
2022/08/12 05:00:47;;;;;;;0.50;0.50;;;13.40;1.00;;;;;;5054044;28;20179;-78
2022/08/12 05:03:13;;;;;;;0.47;0.47;;;13.60;99.90;;;;;;5056569;28;20206;-78
2022/08/12 05:05:40;;;;;;;0.60;0.60;;;14.00;99.90;;;;;;5055874;28;20171;-78
2022/08/12 05:08:15;;;;;;;0.40;0.40;;;14.20;1.00;;;;;;5054813;28;20183;-77
2022/08/12 05:10:42;;;;;;;0.50;0.50;;;14.20;99.90;;;;;;5055117;28;20205;-78
2022/08/12 05:13:11;;;;;;;0.50;0.50;;;13.90;10.10;;;;;;5060170;28;20195;-78
2022/08/12 05:15:41;;;;;;;0.40;0.40;;;14.30;1.00;;;;;;5059618;28;20179;-78
2022/08/12 05:18:07;;;;;;;0.43;0.43;;;14.40;1.00;;;;;;5057524;28;20235;-78
2022/08/12 05:20:33;;;;;;;0.50;0.50;;;14.20;1.00;;;;;;5057589;28;20190;-78
2022/08/12 05:23:13;;;;;;;0.47;0.47;;;14.00;98.70;;;;;;5056666;28;20203;-78
2022/08/12 05:25:41;;;;;;;0.50;0.50;;;14.10;99.90;;;;;;5055804;28;20171;-78
2022/08/12 05:28:07;;;;;;;0.43;0.43;;;14.20;74.00;;;;;;5057621;28;20214;-78
2022/08/12 05:30:34;;;;;;;0.50;0.50;;;14.30;1.00;;;;;;5055337;28;20175;-78
2022/08/12 05:33:04;;;;;;;0.40;0.40;;;14.40;21.10;;;;;;5060355;28;20191;-77
2022/08/12 05:35:41;;;;;;;0.50;0.50;;;14.60;99.90;;;;;;5060198;28;20194;-77
2022/08/12 05:40:53;;;;;;;0.40;0.40;;;15.20;99.90;;;;;;5057225;28;20639;-78
2022/08/12 05:43:19;;;;;;;0.50;0.50;;;15.20;99.90;;;;;;5055351;28;20281;-77
2022/08/12 05:45:45;;;;;;;0.40;0.40;;;15.00;99.90;;;;;;5055665;28;20224;-77
2022/08/12 05:48:11;;;;;;;0.37;0.37;;;15.20;1.00;;;;;;5057194;28;20651;-78
2022/08/12 05:50:37;;;;;;;0.40;0.40;;;14.90;1.00;;;;;;5058798;28;20183;-79
2022/08/12 05:53:03;;;;;;;0.47;0.47;;;15.40;1.00;;;;;;5070446;28;20218;-78
2022/08/12 05:55:30;;;;;;;0.40;0.40;;;15.20;1.00;;;;;;5077262;28;20183;-78
2022/08/12 05:57:56;;;;;;;0.50;0.50;;;15.50;1.00;;;;;;5075123;28;20175;-78
2022/08/12 06:00:24;;;;;;;0.60;0.60;;;15.50;1.00;;;;;;5069120;28;20171;-77
2022/08/12 06:02:59;;;;;;;0.40;0.40;;;15.70;99.90;;;;;;5061680;28;20207;-78
2022/08/12 06:05:26;;;;;;;0.40;0.40;;;15.80;1.00;;;;;;5059472;28;20178;-79
2022/08/12 06:07:57;;;;;;;0.50;0.50;;;16.10;1.00;;;;;;5052537;28;20175;-77
2022/08/12 06:10:22;;;;;;;0.30;0.30;;;16.30;1.00;;;;;;5044607;28;20203;-77
2022/08/12 06:12:50;;;;;;;0.40;0.40;;;16.40;1.00;;;;;;5048982;28;20321;-76
2022/08/12 06:15:16;;;;;;;0.43;0.43;;;16.60;1.00;;;;;;5053279;28;20183;-76
2022/08/12 06:17:42;;;;;;;0.30;0.30;;;16.70;99.90;;;;;;5050478;28;20225;-75
2022/08/12 06:20:12;;;;;;;0.37;0.37;;;17.00;1.00;;;;;;5048518;28;20179;-76
2022/08/12 06:22:38;;;;;;;0.50;0.50;;;17.10;99.90;;;;;;5051820;28;20191;-74
2022/08/12 06:25:04;;;;;;;0.50;0.50;;;17.20;99.90;;;;;;5055231;28;20191;-77
2022/08/12 06:27:30;;;;;;;0.40;0.40;;;17.50;99.90;;;;;;5056465;28;20171;-76
2022/08/12 06:29:57;;;;;;;0.40;0.40;;;17.60;99.90;;;;;;5053899;28;20231;-77
2022/08/12 06:32:23;;;;;;;0.40;0.40;;;18.20;1.00;;;;;;5054550;28;20218;-79
2022/08/12 06:34:49;;;;;;;0.40;0.40;;;18.10;1.00;;;;;;5053806;28;20175;-77
2022/08/12 06:37:17;;;;;;;0.30;0.30;;;18.10;1.00;;;;;;5053744;28;20258;-77
2022/08/12 06:39:43;;;;;;;0.40;0.40;;;18.20;1.00;;;;;;5051808;28;20187;-77
2022/08/12 06:44:53;;;;;;;0.30;0.30;;;19.00;1.00;;;;;;5054665;28;20186;-77
2022/08/12 06:47:20;;;;;;;0.40;0.40;;;19.80;1.00;;;;;;5052185;28;20612;-77
2022/08/12 06:49:47;;;;;;;0.40;0.40;;;20.10;1.00;;;;;;5048011;28;20725;-77
2022/08/12 06:52:13;;;;;;;0.40;0.40;;;20.20;1.00;;;;;;5046812;28;20219;-77
2022/08/12 06:54:40;;;;;;;0.30;0.30;;;20.30;1.00;;;;;;5050276;28;20175;-77
2022/08/12 06:57:05;;;;;;;0.30;0.30;;;20.60;1.00;;;;;;5046539;28;20194;-77
2022/08/12 06:59:34;;;;;;;0.30;0.30;;;20.70;1.00;;;;;;5051036;28;20176;-77
2022/08/12 07:01:59;;;;;;;0.40;0.40;;;20.70;1.00;;;;;;5053515;28;20250;-77
2022/08/12 07:04:25;;;;;;;0.20;0.20;;;20.90;1.00;;;;;;5051841;28;20207;-76
2022/08/12 07:06:51;;;;;;;0.23;0.23;;;21.10;1.00;;;;;;5055025;28;20653;-77
2022/08/12 07:09:16;;;;;;;0.23;0.23;;;21.20;1.00;;;;;;5053329;28;20286;-77
2022/08/12 07:11:43;;;;;;;0.30;0.30;;;21.30;1.00;;;;;;5054838;28;20676;-76
2022/08/12 07:14:09;;;;;;;0.30;0.30;;;21.50;1.00;;;;;;5055344;28;20199;-76
2022/08/12 07:16:55;;;;;;;0.30;0.30;;;21.50;1.00;;;;;;5056898;28;20333;-78
2022/08/12 07:19:21;;;;;;;0.30;0.30;;;21.70;1.00;;;;;;5056686;28;20195;-76
2022/08/12 07:21:48;;;;;;;0.30;0.30;;;21.60;1.00;;;;;;5059514;28;20188;-76
2022/08/12 07:24:14;;;;;;;0.30;0.30;;;21.70;1.00;;;;;;5057889;28;20238;-76
2022/08/12 07:26:40;;;;;;;0.40;0.40;;;21.90;1.00;;;;;;5055820;28;20175;-77
2022/08/12 07:29:09;;;;;;;0.30;0.30;;;22.20;1.00;;;;;;5054818;28;20191;-76
2022/08/12 07:31:36;;;;;;;0.20;0.20;;;22.30;1.00;;;;;;5057799;28;20261;-78
2022/08/12 07:34:03;;;;;;;0.30;0.30;;;22.50;1.00;;;;;;5053812;28;20274;-77
2022/08/12 07:36:28;;;;;;;0.20;0.20;;;22.60;1.00;;;;;;5053851;28;20175;-77
2022/08/12 07:38:54;;;;;;;0.30;0.30;;;22.50;1.00;;;;;;5054000;28;20692;-77
2022/08/12 07:41:21;;;;;;;0.30;0.30;;;22.60;1.00;;;;;;5055045;28;20187;-77
2022/08/12 07:43:55;;;;;;;0.30;0.30;;;22.70;1.00;;;;;;5055017;28;20202;-78
2022/08/12 07:46:24;;;;;;;0.30;0.30;;;23.00;1.00;;;;;;5055067;28;20182;-78
2022/08/12 07:48:53;;;;;;;0.30;0.30;;;23.70;1.00;;;;;;5055349;28;20266;-77
2022/08/12 07:51:20;;;;;;;0.30;0.30;;;24.20;1.00;;;;;;5055660;28;20770;-77
2022/08/12 07:53:47;;;;;;;0.30;0.30;;;24.40;1.00;;;;;;5055751;28;20191;-77
2022/08/12 07:56:14;;;;;;;0.30;0.30;;;24.70;1.00;;;;;;5054385;28;20175;-77
2022/08/12 07:58:40;;;;;;;0.40;0.40;;;25.10;1.00;;;;;;5055836;28;20237;-78
2022/08/12 08:01:11;;;;;;;0.20;0.20;;;25.40;1.00;;;;;;5054137;28;20179;-77
2022/08/12 08:04:54;;;;;;;0.30;0.30;;;25.70;1.00;;;;;;5055674;28;20210;-76
2022/08/12 08:06:32;;;;;;;0.30;0.30;;;26.10;1.00;;;;;;5053276;28;20629;-80
2022/08/12 08:08:58;;;;;;;0.40;0.40;;;26.10;1.00;;;;;;5054790;28;20202;-78
2022/08/12 08:14:09;;;;;;;0.30;0.30;;;26.40;1.00;;;;;;5055726;28;20202;-78
2022/08/12 08:16:36;;;;;;;0.40;0.40;;;26.70;1.00;;;;;;5058723;28;20186;-77
2022/08/12 08:19:03;;;;;;;0.40;0.40;;;26.70;1.00;;;;;;5063578;28;20182;-78
2022/08/12 08:21:31;;;;;;;0.52;0.52;;;27.00;1.00;;;;;;5058578;28;20262;-79
2022/08/12 08:24:16;;;;;;;0.50;0.50;;;27.20;1.00;;;;;;5058786;28;20214;-79
2022/08/12 08:26:46;;;;;;;0.43;0.43;;;26.90;1.00;;;;;;5056747;28;20179;-81
2022/08/12 08:29:13;;;;;;;0.50;0.50;;;26.40;1.00;;;;;;5057661;28;20555;-77
2022/08/12 08:31:44;;;;;;;0.50;0.50;;;26.60;1.00;;;;;;5058475;28;20560;-78
2022/08/12 08:34:11;;;;;;;0.43;0.43;;;26.60;1.00;;;;;;5057840;28;20249;-79
2022/08/12 08:36:38;;;;;;;0.40;0.40;;;26.80;1.00;;;;;;5056651;28;20189;-78
2022/08/12 08:39:05;;;;;;;0.45;0.45;;;27.10;1.00;;;;;;5055661;28;20182;-79
2022/08/12 08:44:15;;;;;;;0.30;0.30;;;26.70;1.00;;;;;;5050998;28;20205;-79
2022/08/12 08:46:43;;;;;;;0.50;0.50;;;27.00;1.00;;;;;;5054541;28;20179;-80
2022/08/12 08:49:10;;;;;;;0.50;0.50;;;26.80;1.00;;;;;;5053636;28;20187;-79
2022/08/12 08:51:37;;;;;;;0.50;0.50;;;26.40;1.00;;;;;;5053430;28;20206;-79
2022/08/12 08:54:05;;;;;;;0.50;0.50;;;27.00;1.00;;;;;;5052168;28;20195;-79
2022/08/12 08:56:31;;;;;;;0.40;0.40;;;27.20;1.00;;;;;;5057992;28;20691;-79
2022/08/12 08:58:57;;;;;;;0.40;0.40;;;26.90;1.00;;;;;;5074688;28;20183;-77
2022/08/12 09:01:23;;;;;;;0.43;0.43;;;26.70;1.00;;;;;;5073816;28;20175;-79
2022/08/12 09:03:48;;;;;;;0.37;0.37;;;27.10;1.00;;;;;;5069533;28;20548;-80
2022/08/12 09:06:14;;;;;;;0.47;0.47;;;27.40;1.00;;;;;;5062599;28;20198;-80
2022/08/12 09:08:43;;;;;;;0.50;0.50;;;26.80;1.00;;;;;;5044221;28;20179;-81
2022/08/12 09:13:53;;;;;;;0.40;0.40;;;27.20;1.00;;;;;;5057367;28;20724;-80
2022/08/12 09:16:19;;;;;;;0.40;0.40;;;27.50;1.00;;;;;;5140473;22;20219;-79
2022/08/12 09:18:45;;;;;;;0.50;0.50;;;27.30;1.00;;;;;;5038430;28;20191;-78
2022/08/12 09:21:12;;;;;;;0.50;0.50;;;27.80;1.00;;;;;;5042216;28;20175;-79
2022/08/12 09:23:38;;;;;;;0.40;0.40;;;28.80;1.00;;;;;;5041561;28;20266;-81
2022/08/12 09:26:03;;;;;;;0.37;0.37;;;27.90;1.00;;;;;;5044228;28;20180;-79
2022/08/12 09:28:30;;;;;;;0.40;0.40;;;27.60;1.00;;;;;;5042382;28;20175;-78
2022/08/12 09:30:57;;;;;;;0.60;0.60;;;27.40;1.00;;;;;;5034820;28;20231;-78
2022/08/12 09:33:32;;;;;;;0.50;0.50;;;27.80;1.00;;;;;;5006187;28;20263;-77
2022/08/12 09:36:03;;;;;;;0.60;0.60;;;27.90;1.00;;;;;;5027170;28;20233;-76
2022/08/12 09:38:29;;;;;;;0.60;0.60;;;27.80;1.00;;;;;;5031651;28;20187;-77
2022/08/12 09:40:56;;;;;;;0.57;0.57;;;27.70;1.00;;;;;;5030870;28;20218;-77
2022/08/12 09:46:07;;;;;;;0.50;0.50;;;27.80;1.00;;;;;;5031308;28;20314;-77
2022/08/12 09:48:33;;;;;;;0.50;0.50;;;28.00;1.00;;;;;;5030628;28;20176;-77
2022/08/12 09:50:59;;;;;;;0.50;0.50;;;28.50;1.00;;;;;;5031766;28;20715;-77
2022/08/12 09:53:25;;;;;;;0.50;0.50;;;28.30;1.00;;;;;;5032470;28;20226;-77
2022/08/12 09:55:55;;;;;;;0.53;0.53;;;28.30;1.00;;;;;;5032936;28;20179;-77
2022/08/12 09:58:29;;;;;;;0.57;0.57;;;28.80;1.00;;;;;;5033477;28;20548;-79
2022/08/12 10:00:56;;;;;;;0.50;0.50;;;28.50;1.00;;;;;;4995260;28;20263;-78
2022/08/12 10:03:25;;;;;;;0.60;0.60;;;28.90;1.00;;;;;;5029717;28;20701;-78
2022/08/12 10:05:52;;;;;;;0.50;0.50;;;29.80;1.00;;;;;;5038420;28;20187;-77
2022/08/12 10:08:18;;;;;;;0.50;0.50;;;30.40;1.00;;;;;;5036184;28;20176;-78
2022/08/12 10:13:43;;;;;;;0.40;0.40;;;30.20;1.00;;;;;;5037493;28;20238;-77
2022/08/12 10:16:27;;;;;;;0.55;0.55;;;30.20;1.00;;;;;;5044700;28;20209;-79
2022/08/12 10:19:00;;;;;;;0.50;0.50;;;30.10;1.00;;;;;;5026589;28;20552;-75
2022/08/12 10:21:35;;;;;;;0.50;0.50;;;29.90;1.00;;;;;;5029155;28;20176;-77
2022/08/12 10:24:03;;;;;;;0.45;0.45;;;29.30;1.00;;;;;;5023658;28;20222;-77
2022/08/12 10:31:59;;;;;;;0.40;0.40;;;28.40;1.00;;;;;;5024385;28;20246;-76
2022/08/12 10:34:25;;;;;;;0.40;0.40;;;27.90;1.00;;;;;;5029582;28;20216;-77
2022/08/12 10:36:57;;;;;;;0.40;0.40;;;28.00;1.00;;;;;;5032046;28;20229;-78
2022/08/12 10:39:24;;;;;;;0.40;0.40;;;28.60;1.00;;;;;;5024289;28;20191;-74
2022/08/12 10:44:35;;;;;;;0.50;0.50;;;28.90;1.00;;;;;;5033446;28;20562;-75
2022/08/12 10:47:01;;;;;;;0.50;0.50;;;28.60;1.00;;;;;;5035188;28;20176;-75
2022/08/12 10:49:33;;;;;;;0.43;0.43;;;29.00;1.00;;;;;;5033777;28;20179;-76
2022/08/12 10:52:03;;;;;;;0.43;0.43;;;29.40;1.00;;;;;;5033891;28;20250;-75
2022/08/12 10:54:29;;;;;;;0.50;0.50;;;29.30;1.00;;;;;;5033964;28;20184;-77
2022/08/12 10:56:59;;;;;;;0.60;0.60;;;29.40;1.00;;;;;;5034459;28;20176;-77
2022/08/12 10:59:28;;;;;;;0.40;0.40;;;30.00;1.00;;;;;;5034621;28;20230;-77
2022/08/12 11:01:55;;;;;;;0.37;0.37;;;30.00;1.00;;;;;;5033881;28;20521;-76
2022/08/12 11:04:22;;;;;;;0.50;0.50;;;29.60;1.00;;;;;;5034619;28;20195;-76
2022/08/12 11:06:49;;;;;;;0.50;0.50;;;29.90;1.00;;;;;;5029491;28;20191;-76
2022/08/12 11:09:20;;;;;;;0.60;0.60;;;29.80;1.00;;;;;;5033477;28;20694;-76
2022/08/12 11:11:47;;;;;;;0.50;0.50;;;28.80;1.00;;;;;;5033905;28;20661;-77
2022/08/12 11:14:18;;;;;;;0.40;0.40;;;29.30;1.00;;;;;;5033924;28;20711;-77
2022/08/12 11:16:44;;;;;;;0.37;0.37;;;29.50;1.00;;;;;;5033700;28;20677;-75
2022/08/12 11:19:11;;;;;;;0.50;0.50;;;29.10;1.00;;;;;;5027425;28;20195;-76
2022/08/12 11:21:37;;;;;;;0.40;0.40;;;28.40;1.00;;;;;;5032415;28;20270;-75
2022/08/12 11:24:03;;;;;;;0.40;0.40;;;28.50;1.00;;;;;;5033206;28;20283;-77
2022/08/12 11:26:28;;;;;;;0.50;0.50;;;29.00;1.00;;;;;;5034277;28;20656;-77
2022/08/12 11:28:54;;;;;;;0.33;0.33;;;28.70;1.00;;;;;;5032899;28;20179;-77
2022/08/12 11:31:19;;;;;;;0.30;0.30;;;28.60;1.00;;;;;;5033456;28;20211;-77
2022/08/12 11:33:48;;;;;;;0.40;0.40;;;28.50;1.00;;;;;;5033453;28;20692;-75
2022/08/12 11:36:14;;;;;;;0.40;0.40;;;28.60;1.00;;;;;;5033765;28;20207;-76
2022/08/12 11:38:39;;;;;;;0.50;0.50;;;28.90;1.00;;;;;;5033878;28;20180;-76
2022/08/12 11:41:05;;;;;;;0.40;0.40;;;28.80;1.00;;;;;;5033398;28;20204;-75
2022/08/12 11:43:31;;;;;;;0.43;0.43;;;28.90;1.00;;;;;;5033595;28;20283;-75
2022/08/12 11:45:58;;;;;;;0.40;0.40;;;29.20;1.00;;;;;;5031856;28;20186;-75
2022/08/12 11:48:23;;;;;;;0.37;0.37;;;29.80;1.00;;;;;;5026406;28;20238;-75
2022/08/12 11:50:49;;;;;;;0.50;0.50;;;29.40;1.00;;;;;;5032518;28;20184;-76
2022/08/12 11:53:15;;;;;;;0.40;0.40;;;29.50;1.00;;;;;;5032625;28;20230;-75
2022/08/12 11:55:41;;;;;;;0.40;0.40;;;29.20;1.00;;;;;;5032688;28;20175;-76
2022/08/12 11:58:06;;;;;;;0.50;0.50;;;29.60;1.00;;;;;;5037377;28;20178;-77
2022/08/12 12:00:32;;;;;;;0.30;0.30;;;29.90;1.00;;;;;;5041682;28;20172;-77
2022/08/12 12:02:58;;;;;;;0.40;0.40;;;30.20;1.00;;;;;;5041478;28;20322;-76
2022/08/12 12:05:24;;;;;;;0.40;0.40;;;30.50;1.00;;;;;;5037749;28;20178;-77
2022/08/12 12:07:49;;;;;;;0.50;0.50;;;30.40;1.00;;;;;;5040478;28;20179;-76
2022/08/12 12:10:19;;;;;;;0.60;0.60;;;30.80;1.00;;;;;;5039717;28;20559;-76
2022/08/12 12:12:45;;;;;;;0.50;0.50;;;30.80;1.00;;;;;;5041921;28;20578;-76
2022/08/12 12:15:11;;;;;;;0.60;0.60;;;30.40;1.00;;;;;;5034517;28;20267;-77
2022/08/12 12:17:38;;;;;;;0.50;0.50;;;29.50;1.00;;;;;;5036212;28;20183;-75
2022/08/12 12:20:08;;;;;;;0.50;0.50;;;29.80;1.00;;;;;;5032290;28;20172;-75
2022/08/12 12:22:33;;;;;;;0.40;0.40;;;29.50;1.00;;;;;;5032362;28;20673;-74
2022/08/12 12:24:59;;;;;;;0.50;0.50;;;28.20;1.00;;;;;;5023157;28;20203;-74
2022/08/12 12:27:24;;;;;;;0.43;0.43;;;29.00;1.00;;;;;;5032463;28;20192;-76
2022/08/12 12:29:50;;;;;;;0.50;0.50;;;29.20;1.00;;;;;;5032286;28;20187;-74
2022/08/12 12:32:16;;;;;;;0.47;0.47;;;28.80;1.00;;;;;;5032275;28;20258;-76
2022/08/12 12:34:41;;;;;;;0.40;0.40;;;28.40;1.00;;;;;;5032570;28;20307;-73
2022/08/12 12:37:11;;;;;;;0.40;0.40;;;28.00;1.00;;;;;;5032717;28;20195;-74
2022/08/12 12:39:37;;;;;;;0.40;0.40;;;27.80;1.00;;;;;;5031826;28;20187;-74
2022/08/12 12:42:03;;;;;;;0.40;0.40;;;27.80;1.00;;;;;;5032624;28;20538;-75
2022/08/12 12:44:28;;;;;;;0.40;0.40;;;28.00;1.00;;;;;;5032053;28;20191;-74
2022/08/12 12:46:54;;;;;;;0.40;0.40;;;28.70;1.00;;;;;;5031681;28;20190;-74
2022/08/12 12:49:19;;;;;;;0.43;0.43;;;28.60;1.00;;;;;;5031378;28;20196;-75
2022/08/12 12:51:45;;;;;;;0.50;0.50;;;28.00;1.00;;;;;;5031910;28;20676;-74
2022/08/12 12:54:11;;;;;;;0.40;0.40;;;28.00;1.00;;;;;;5032004;28;20195;-73
2022/08/12 12:56:41;;;;;;;0.50;0.50;;;27.60;99.90;;;;;;5031964;28;20172;-74
2022/08/12 12:59:07;;;;;;;0.40;0.40;;;27.70;1.00;;;;;;5028011;28;20183;-74
2022/08/12 13:01:36;;;;;;;0.40;0.40;;;27.70;1.00;;;;;;5031993;28;20182;-75
2022/08/12 13:04:06;;;;;;;0.40;0.40;;;28.20;1.00;;;;;;5032424;28;20645;-75
2022/08/12 13:06:32;;;;;;;0.40;0.40;;;28.60;1.00;;;;;;5032497;28;20184;-77
2022/08/12 13:09:02;;;;;;;0.40;0.40;;;28.30;1.00;;;;;;5032318;28;20179;-76
2022/08/12 13:11:28;;;;;;;0.30;0.30;;;28.40;1.00;;;;;;5031477;28;20582;-74
2022/08/12 13:13:55;;;;;;;0.50;0.50;;;28.70;1.00;;;;;;5030895;28;20218;-75
2022/08/12 13:16:21;;;;;;;0.40;0.40;;;28.40;1.00;;;;;;5027377;28;20196;-73
2022/08/12 13:18:48;;;;;;;0.30;0.30;;;28.10;1.00;;;;;;5027924;28;20195;-74
2022/08/12 13:21:16;;;;;;;0.40;0.40;;;28.00;1.00;;;;;;5035191;28;20266;-74
2022/08/12 13:23:44;;;;;;;0.30;0.30;;;27.40;99.90;;;;;;5043561;28;20212;-73
2022/08/12 13:26:10;;;;;;;0.43;0.43;;;27.00;99.90;;;;;;5038982;28;20184;-75
2022/08/12 13:28:36;;;;;;;0.30;0.30;;;27.10;99.90;;;;;;5042428;28;20183;-73
2022/08/12 13:31:02;;;;;;;0.23;0.23;;;27.90;1.00;;;;;;5041524;28;20609;-74
2022/08/12 13:33:28;;;;;;;0.43;0.43;;;28.30;1.00;;;;;;5044015;28;20206;-74
2022/08/12 13:35:59;;;;;;;0.40;0.40;;;28.10;1.00;;;;;;5031307;28;20195;-74
2022/08/12 13:38:38;;;;;;;0.30;0.30;;;27.70;99.90;;;;;;5037025;28;20182;-75
2022/08/12 13:41:05;;;;;;;0.40;0.40;;;28.10;1.00;;;;;;5039272;28;20266;-74
2022/08/12 13:43:32;;;;;;;0.50;0.50;;;28.60;1.00;;;;;;5038004;28;20379;-74
2022/08/12 13:45:58;;;;;;;0.30;0.30;;;28.40;1.00;;;;;;5039023;28;20191;-74
2022/08/12 13:48:24;;;;;;;0.40;0.40;;;28.40;1.00;;;;;;5039987;28;20546;-74
2022/08/12 13:50:49;;;;;;;0.40;0.40;;;28.60;1.00;;;;;;5036212;28;20491;-73
2022/08/12 13:53:16;;;;;;;0.60;0.60;;;29.20;1.00;;;;;;5038612;28;20192;-74
2022/08/12 13:55:44;;;;;;;0.40;0.40;;;28.90;1.00;;;;;;5041244;28;20533;-73
2022/08/12 13:58:12;;;;;;;0.40;0.40;;;28.70;1.00;;;;;;5030982;28;20180;-74
2022/08/12 14:00:38;;;;;;;0.43;0.43;;;28.70;1.00;;;;;;5029476;28;20552;-74
2022/08/12 14:03:04;;;;;;;0.30;0.30;;;28.30;1.00;;;;;;5030250;28;20207;-74
2022/08/12 14:05:31;;;;;;;0.40;0.40;;;28.40;1.00;;;;;;5030167;28;20188;-74
2022/08/12 14:08:04;;;;;;;0.30;0.30;;;28.30;1.00;;;;;;5029744;28;20255;-75
2022/08/12 14:10:36;;;;;;;0.40;0.40;;;29.00;1.00;;;;;;5037803;28;20179;-74
2022/08/12 14:13:16;;;;;;;0.40;0.40;;;29.30;1.00;;;;;;5035481;28;20219;-77
2022/08/12 14:15:45;;;;;;;0.40;0.40;;;28.80;1.00;;;;;;5032416;28;20206;-74
2022/08/12 14:18:15;;;;;;;0.40;0.40;;;28.10;99.90;;;;;;5040421;28;20172;-76
2022/08/12 14:20:42;;;;;;;0.40;0.40;;;28.00;99.90;;;;;;5035820;28;20310;-76
2022/08/12 14:23:08;;;;;;;0.40;0.40;;;27.80;99.90;;;;;;5026764;28;20218;-76
2022/08/12 14:25:34;;;;;;;0.40;0.40;;;27.80;99.90;;;;;;5026940;28;20262;-77
2022/08/12 14:28:10;;;;;;;0.40;0.40;;;28.00;99.90;;;;;;5037483;28;20259;-76
2022/08/12 14:30:36;;;;;;;0.40;0.40;;;27.80;99.90;;;;;;5019774;28;20176;-75
2022/08/12 14:33:02;;;;;;;0.60;0.60;;;27.70;99.90;;;;;;5024588;28;20230;-73
2022/08/12 14:35:28;;;;;;;0.33;0.33;;;27.50;99.90;;;;;;5033700;28;20653;-74
2022/08/12 14:37:53;;;;;;;0.40;0.40;;;27.30;99.90;;;;;;5035674;28;20245;-73
2022/08/12 14:40:19;;;;;;;0.30;0.30;;;26.90;99.90;;;;;;5037682;28;20187;-73
2022/08/12 14:42:44;;;;;;;0.40;0.40;;;26.70;99.90;;;;;;5042909;28;20662;-73
2022/08/12 14:45:10;;;;;;;0.40;0.40;;;26.70;99.90;;;;;;5050548;28;20647;-73
2022/08/12 14:47:53;;;;;;;0.43;0.43;;;27.10;99.90;;;;;;5046673;28;20183;-74